Enter the Airport ICAO Code

Search by Airport or City

Current Weather

GCXO | Tenerife-North Airport (Los Rodeos Airport)

Tenerife, Canary Islands, Spain

Last Update 26 Minutes Ago

Partly Cloudy Sky

Temperature of 19 ºC

Moderate Winds from NorthWest

Temperature

19 ºC

Dew Point Temperature

12 ºC

Relative Humidity

64 %

Wind Direction

NorthWest (330º, Ranging from 300º to 020º)

Wind Velocity

24 km/h (13 kt)

Gusts

None

Visibility

Greater than 10 Kilometers

Sea Level Pressure

1023 hPa (Hectopascals)

Layers of Clouds

5% to 30% of Sky Covered from 610 mts (2000 ft) Above Ground Level.

30% to 60% of Sky Covered from 1067 mts (3500 ft) Above Ground Level.

METAR GCXO 191100Z 33013KT 300V020 9999 FEW020 SCT035 19/12 Q1023 NOSIG

Weather Forecast

GCXO | Tenerife-North Airport (Los Rodeos Airport)

Tenerife, Canary Islands, Spain

Forecast valid for the next 22 Hours

From now on it is expected:

Mostly Cloudy Sky

Moderate Winds from NorthWest

In 4 hours it is expected the begining of 7 hours with intermittent periods of:

Moderate to Strong Winds from NorthWest with Gusts

In 12 hours it is expected the begining of 9 hours with intermittent periods of:

Drizzle

Maximum Temperature

19 ºC in 3 Hours

Minimum Temperature

14 ºC in 19 Hours

TAF GCXO 190800Z 1909/2009 33013KT 9999 BKN020 TX19/1914Z TN14/2006Z PROB40 TEMPO 1909/1911 BKN012 PROB40 TEMPO 1915/1922 32018G28KT PROB30 TEMPO 1923/2008 3500 DZ BKN010